createdAt,value
2019-05-14T00:00:09.247Z,28.6442
2019-05-14T00:00:17.460Z,28.6946
2019-05-14T00:00:27.769Z,28.9403
2019-05-14T00:00:38.255Z,28.9952
2019-05-14T00:00:51.982Z,28.9921
2019-05-14T00:00:58.277Z,28.7541
2019-05-14T00:01:11.730Z,28.6473
2019-05-14T00:01:18.255Z,28.7404
2019-05-14T00:01:31.302Z,28.9265
2019-05-14T00:01:38.234Z,28.9876
2019-05-14T00:01:48.453Z,28.7984
2019-05-14T00:01:58.272Z,28.7251
2019-05-14T00:02:11.960Z,28.8991
2019-05-14T00:02:18.245Z,28.9647
2019-05-14T00:02:29.251Z,29.0593
2019-05-14T00:02:38.226Z,28.9723
2019-05-14T00:02:51.976Z,28.7846
2019-05-14T00:03:02.145Z,28.4871
2019-05-14T00:03:11.198Z,28.2872
2019-05-14T00:03:21.928Z,28.2780
2019-05-14T00:03:31.140Z,28.3040
2019-05-14T00:03:41.424Z,28.4153
2019-05-14T00:03:51.452Z,28.3238
2019-05-14T00:04:02.121Z,28.4916
2019-05-14T00:04:11.759Z,28.6122
2019-05-14T00:04:22.028Z,28.3833
2019-05-14T00:04:28.246Z,28.2506
2019-05-14T00:04:42.265Z,28.3635
2019-05-14T00:04:48.244Z,28.3268
2019-05-14T00:05:01.692Z,28.2048
2019-05-14T00:05:08.244Z,28.3558
2019-05-14T00:05:21.460Z,28.3452
2019-05-14T00:05:28.265Z,28.1270
2019-05-14T00:05:39.263Z,28.1575
2019-05-14T00:05:48.251Z,28.2261
2019-05-14T00:05:59.237Z,28.5939
2019-05-14T00:06:08.275Z,28.7633
2019-05-14T00:06:19.266Z,28.6122
2019-05-14T00:06:28.239Z,28.5191
2019-05-14T00:06:41.578Z,28.4977
2019-05-14T00:06:48.235Z,28.3604
2019-05-14T00:07:01.023Z,28.3192
2019-05-14T00:07:08.264Z,28.6259
2019-05-14T00:07:19.244Z,28.3314
2019-05-14T00:07:28.709Z,28.1270
2019-05-14T00:07:41.422Z,28.1849
2019-05-14T00:07:48.254Z,28.3467
2019-05-14T00:07:59.250Z,28.3650
2019-05-14T00:08:08.235Z,28.3696
2019-05-14T00:08:19.249Z,28.3497
2019-05-14T00:08:28.235Z,28.5237
2019-05-14T00:08:41.631Z,28.6427
2019-05-14T00:08:48.245Z,28.7770
2019-05-14T00:09:01.386Z,28.7434
2019-05-14T00:09:08.255Z,28.8640
2019-05-14T00:09:21.398Z,29.1707
2019-05-14T00:09:28.302Z,29.1371
2019-05-14T00:09:41.383Z,28.9540
2019-05-14T00:09:48.255Z,28.8396
2019-05-14T00:10:01.089Z,28.8624
2019-05-14T00:10:07.465Z,28.9372
2019-05-14T00:10:18.227Z,29.0959
2019-05-14T00:10:28.230Z,28.9082
2019-05-14T00:10:38.063Z,28.7312
2019-05-14T00:10:49.282Z,28.6259
2019-05-14T00:10:58.452Z,28.4962
2019-05-14T00:11:08.225Z,28.4321
2019-05-14T00:11:19.248Z,28.5573
2019-05-14T00:11:28.248Z,28.6885
2019-05-14T00:11:39.253Z,28.7541
2019-05-14T00:11:51.289Z,28.7938
2019-05-14T00:12:02.937Z,28.7526
2019-05-14T00:12:11.359Z,28.6427
2019-05-14T00:12:19.231Z,28.4382
2019-05-14T00:12:31.488Z,28.4932
2019-05-14T00:12:38.248Z,28.6625
2019-05-14T00:12:51.242Z,29.0013
2019-05-14T00:12:58.148Z,28.9738
2019-05-14T00:13:12.057Z,28.9952
2019-05-14T00:13:18.245Z,28.7160
2019-05-14T00:13:29.253Z,28.5206
2019-05-14T00:13:38.236Z,28.4382
2019-05-14T00:13:49.234Z,28.4611
2019-05-14T00:13:58.234Z,28.7266
2019-05-14T00:14:11.441Z,28.7480
2019-05-14T00:14:18.257Z,28.7633
2019-05-14T00:14:37.234Z,28.8685
2019-05-14T00:14:40.366Z,28.9555
2019-05-14T00:14:48.231Z,28.8411
2019-05-14T00:14:58.253Z,28.6763
2019-05-14T00:15:11.069Z,28.6122
2019-05-14T00:15:18.230Z,28.4916
2019-05-14T00:15:29.230Z,28.7266
2019-05-14T00:15:38.255Z,28.8457
2019-05-14T00:15:49.235Z,29.0135
2019-05-14T00:15:58.245Z,28.9036
2019-05-14T00:16:09.230Z,29.0288
2019-05-14T00:16:18.247Z,28.9097
2019-05-14T00:16:28.067Z,28.7312
2019-05-14T00:16:38.240Z,28.6625
2019-05-14T00:16:51.188Z,28.7999
2019-05-14T00:16:59.309Z,28.7541
2019-05-14T00:17:11.200Z,28.3696
2019-05-14T00:17:21.509Z,28.2857
2019-05-14T00:17:29.246Z,28.2994
2019-05-14T00:17:38.237Z,28.2170
2019-05-14T00:17:49.240Z,28.1758
2019-05-14T00:17:58.226Z,28.1041
2019-05-14T00:18:11.622Z,28.3406
2019-05-14T00:18:22.231Z,28.2414
2019-05-14T00:18:31.301Z,28.1987
2019-05-14T00:18:42.012Z,28.0980
2019-05-14T00:18:48.250Z,28.3146
2019-05-14T00:19:01.645Z,28.8258
2019-05-14T00:19:08.236Z,28.9448
2019-05-14T00:19:21.470Z,28.9601
2019-05-14T00:19:28.242Z,28.8273
2019-05-14T00:19:41.375Z,28.5740
2019-05-14T00:19:48.245Z,28.3543
2019-05-14T00:20:07.220Z,28.6168
2019-05-14T00:20:10.081Z,28.8228
2019-05-14T00:20:19.247Z,28.9631
2019-05-14T00:20:28.241Z,28.8212
2019-05-14T00:20:39.247Z,28.7800
2019-05-14T00:20:48.237Z,28.8411
2019-05-14T00:21:01.455Z,28.9036
2019-05-14T00:21:08.275Z,28.8273
2019-05-14T00:21:21.136Z,28.7312
2019-05-14T00:21:28.236Z,28.5924
2019-05-14T00:21:39.239Z,28.6976
2019-05-14T00:21:48.250Z,28.4428
2019-05-14T00:21:59.270Z,28.3330
2019-05-14T00:22:08.250Z,28.3268
2019-05-14T00:22:19.245Z,28.3589
2019-05-14T00:22:28.243Z,28.5420
2019-05-14T00:22:38.695Z,28.6122
2019-05-14T00:22:48.246Z,28.4596
2019-05-14T00:23:01.258Z,28.4550
2019-05-14T00:23:08.253Z,28.3360
2019-05-14T00:23:21.487Z,28.4108
2019-05-14T00:23:28.270Z,28.3177
2019-05-14T00:23:39.252Z,28.2826
2019-05-14T00:23:48.241Z,28.2673
2019-05-14T00:23:59.245Z,28.3787
2019-05-14T00:24:08.259Z,28.4108
2019-05-14T00:24:21.580Z,28.3833
2019-05-14T00:24:32.330Z,28.3284
2019-05-14T00:24:41.270Z,28.3955
2019-05-14T00:24:51.948Z,28.6534
2019-05-14T00:24:58.257Z,28.6107
2019-05-14T00:25:11.700Z,28.4108
2019-05-14T00:25:18.284Z,28.5801
2019-05-14T00:25:31.330Z,28.7343
2019-05-14T00:25:38.252Z,28.5603
2019-05-14T00:25:49.254Z,28.3314
2019-05-14T00:25:58.262Z,28.3421
2019-05-14T00:26:09.242Z,28.3421
2019-05-14T00:26:18.241Z,28.1910
2019-05-14T00:26:29.256Z,28.3680
2019-05-14T00:26:38.257Z,28.7587
2019-05-14T00:26:51.564Z,28.6610
2019-05-14T00:26:58.259Z,28.7434
2019-05-14T00:27:11.358Z,28.6610
2019-05-14T00:27:21.827Z,28.3604
2019-05-14T00:27:31.064Z,28.2353
2019-05-14T00:27:38.246Z,28.1437
2019-05-14T00:27:49.226Z,28.0674
2019-05-14T00:27:58.254Z,27.9484
2019-05-14T00:28:09.246Z,28.1361
2019-05-14T00:28:18.226Z,28.4550
2019-05-14T00:28:31.543Z,28.9281
2019-05-14T00:28:38.227Z,29.0288
2019-05-14T00:28:51.037Z,29.0501
2019-05-14T00:28:58.236Z,28.9143
2019-05-14T00:29:08.105Z,28.7175
2019-05-14T00:29:17.467Z,28.4382
2019-05-14T00:29:29.241Z,28.4459
2019-05-14T00:29:41.450Z,28.5527
2019-05-14T00:29:51.588Z,28.3421
2019-05-14T00:29:58.248Z,28.4749
2019-05-14T00:30:11.328Z,28.8350
2019-05-14T00:30:18.245Z,28.6152
2019-05-14T00:30:31.632Z,28.2597
2019-05-14T00:30:38.214Z,28.2460
2019-05-14T00:30:49.257Z,28.4245
2019-05-14T00:31:02.922Z,28.3589
2019-05-14T00:31:09.232Z,28.3009
2019-05-14T00:31:21.347Z,28.2094
2019-05-14T00:31:28.239Z,28.2857
2019-05-14T00:31:42.530Z,28.2170
2019-05-14T00:31:48.270Z,28.2048
2019-05-14T00:31:59.258Z,28.3635
2019-05-14T00:32:08.250Z,28.3635
2019-05-14T00:32:21.868Z,28.5557
2019-05-14T00:32:28.235Z,28.4703
2019-05-14T00:32:41.442Z,28.5145
2019-05-14T00:32:48.257Z,28.7678
2019-05-14T00:33:01.210Z,28.5924
2019-05-14T00:33:12.237Z,28.5969
2019-05-14T00:33:19.245Z,28.5985
2019-05-14T00:33:28.259Z,28.4962
2019-05-14T00:33:39.255Z,28.5847
2019-05-14T00:33:48.379Z,28.5740
2019-05-14T00:34:01.621Z,28.5374
2019-05-14T00:34:11.741Z,28.5939
2019-05-14T00:34:21.347Z,28.6015
2019-05-14T00:34:28.237Z,28.4550
2019-05-14T00:34:39.234Z,28.4108
2019-05-14T00:34:48.254Z,28.4474
2019-05-14T00:34:59.250Z,28.5786
2019-05-14T00:35:08.243Z,28.3589
2019-05-14T00:35:21.371Z,28.3009
2019-05-14T00:35:29.326Z,28.1865
2019-05-14T00:35:41.203Z,28.1407
2019-05-14T00:35:51.293Z,28.0949
2019-05-14T00:35:59.242Z,28.0125
2019-05-14T00:36:08.247Z,28.1209
2019-05-14T00:36:21.574Z,28.2216
2019-05-14T00:36:28.268Z,28.3238
2019-05-14T00:36:41.747Z,28.4321
2019-05-14T00:36:52.418Z,28.5924
2019-05-14T00:37:01.403Z,28.7297
2019-05-14T00:37:11.494Z,28.9631
2019-05-14T00:37:21.629Z,28.8365
2019-05-14T00:37:32.173Z,28.5893
2019-05-14T00:37:41.495Z,28.4153
2019-05-14T00:37:49.230Z,28.3009
2019-05-14T00:37:58.244Z,28.1025
2019-05-14T00:38:08.777Z,28.0980
2019-05-14T00:38:18.236Z,28.2094
2019-05-14T00:38:31.371Z,28.3040
2019-05-14T00:38:38.248Z,28.4688
2019-05-14T00:38:51.184Z,28.3772
2019-05-14T00:38:57.896Z,28.2277
2019-05-14T00:39:11.210Z,28.0491
2019-05-14T00:39:18.230Z,28.2399
2019-05-14T00:39:29.257Z,28.3268
2019-05-14T00:39:38.246Z,28.1758
2019-05-14T00:39:49.267Z,28.4733
2019-05-14T00:39:58.247Z,28.5420
2019-05-14T00:40:11.580Z,28.4566
2019-05-14T00:40:18.258Z,28.4871
2019-05-14T00:40:31.238Z,28.3146
2019-05-14T00:40:38.268Z,28.2536
2019-05-14T00:40:51.191Z,28.4688
2019-05-14T00:40:58.228Z,28.5801
2019-05-14T00:41:11.148Z,28.5252
2019-05-14T00:41:18.261Z,28.5054
2019-05-14T00:41:31.144Z,28.3635
2019-05-14T00:41:42.720Z,28.4001
2019-05-14T00:41:51.059Z,28.3268
2019-05-14T00:41:58.261Z,28.4276
2019-05-14T00:42:09.244Z,28.4840
2019-05-14T00:42:18.260Z,28.3864
2019-05-14T00:42:29.241Z,28.3833
2019-05-14T00:42:41.134Z,28.4520
2019-05-14T00:42:49.283Z,28.2216
2019-05-14T00:42:58.263Z,28.1804
2019-05-14T00:43:11.270Z,28.2948
2019-05-14T00:43:21.523Z,28.3040
2019-05-14T00:43:29.217Z,28.2307
2019-05-14T00:43:41.567Z,28.2490
2019-05-14T00:43:51.203Z,28.2506
2019-05-14T00:44:01.960Z,28.3818
2019-05-14T00:44:08.255Z,28.5191
2019-05-14T00:44:21.540Z,28.5252
2019-05-14T00:44:28.249Z,28.5481
2019-05-14T00:44:53.513Z,28.6397
2019-05-14T00:44:54.617Z,28.4184
2019-05-14T00:44:58.263Z,28.3314
2019-05-14T00:45:08.229Z,28.2551
2019-05-14T00:45:19.239Z,28.0903
2019-05-14T00:45:28.252Z,28.0842
2019-05-14T00:45:41.609Z,27.8935
2019-05-14T00:45:48.273Z,27.8508
2019-05-14T00:46:01.509Z,28.1025
2019-05-14T00:46:08.254Z,28.1895
2019-05-14T00:46:21.157Z,28.2002
2019-05-14T00:46:28.224Z,28.2048
2019-05-14T00:46:41.069Z,28.1682
2019-05-14T00:46:48.267Z,28.3543
2019-05-14T00:47:03.745Z,28.3146
2019-05-14T00:47:08.226Z,28.3650
2019-05-14T00:47:21.576Z,28.5557
2019-05-14T00:47:28.243Z,28.5786
2019-05-14T00:47:41.571Z,28.5008
2019-05-14T00:47:48.241Z,28.5740
2019-05-14T00:48:01.312Z,28.9006
2019-05-14T00:48:08.254Z,28.9219
2019-05-14T00:48:18.180Z,28.8411
2019-05-14T00:48:31.772Z,28.5557
2019-05-14T00:48:39.269Z,28.3833
2019-05-14T00:48:48.242Z,28.3864
2019-05-14T00:48:58.451Z,28.4413
2019-05-14T00:49:08.251Z,28.1987
2019-05-14T00:49:21.124Z,28.3238
2019-05-14T00:49:31.678Z,28.4642
2019-05-14T00:49:42.258Z,28.5512
2019-05-14T00:49:53.821Z,28.5893
2019-05-14T00:50:02.718Z,28.3787
2019-05-14T00:50:11.253Z,28.2765
2019-05-14T00:50:18.259Z,28.3314
2019-05-14T00:50:31.676Z,28.2872
2019-05-14T00:50:38.230Z,28.3101
2019-05-14T00:50:51.435Z,28.6305
2019-05-14T00:50:58.248Z,28.8396
2019-05-14T00:51:13.735Z,29.1325
2019-05-14T00:51:18.227Z,29.1386
2019-05-14T00:51:29.259Z,28.9860
2019-05-14T00:51:38.258Z,28.7861
2019-05-14T00:51:49.250Z,28.5985
2019-05-14T00:51:58.256Z,28.4916
2019-05-14T00:52:11.502Z,28.3879
2019-05-14T00:52:18.231Z,28.5008
2019-05-14T00:52:31.367Z,28.5161
2019-05-14T00:52:38.276Z,28.4688
2019-05-14T00:52:51.491Z,28.5695
2019-05-14T00:52:58.243Z,28.6152
2019-05-14T00:53:11.676Z,28.6107
2019-05-14T00:53:18.231Z,28.7251
2019-05-14T00:53:31.808Z,28.7175
2019-05-14T00:53:38.250Z,28.5344
2019-05-14T00:53:53.705Z,28.6336
2019-05-14T00:53:58.237Z,28.4886
2019-05-14T00:54:11.135Z,28.2948
2019-05-14T00:54:18.246Z,28.2002
2019-05-14T00:54:29.233Z,28.3452
2019-05-14T00:54:38.242Z,28.4291
2019-05-14T00:54:49.254Z,28.4703
2019-05-14T00:54:58.266Z,28.5161
2019-05-14T00:55:08.203Z,28.4611
2019-05-14T00:55:18.249Z,28.2460
2019-05-14T00:55:28.745Z,28.1804
2019-05-14T00:55:42.098Z,28.1712
2019-05-14T00:55:51.346Z,28.3238
2019-05-14T00:55:58.237Z,28.5756
2019-05-14T00:56:08.414Z,28.6061
2019-05-14T00:56:19.032Z,28.6671
2019-05-14T00:56:31.973Z,28.8670
2019-05-14T00:56:38.253Z,28.8869
2019-05-14T00:56:51.983Z,28.6839
2019-05-14T00:57:01.462Z,28.6931
2019-05-14T00:57:11.579Z,28.8212
2019-05-14T00:57:21.114Z,29.0181
2019-05-14T00:57:28.251Z,29.0822
2019-05-14T00:57:42.583Z,28.9601
2019-05-14T00:57:48.247Z,28.7999
2019-05-14T00:57:59.249Z,28.6534
2019-05-14T00:58:12.277Z,28.6305
2019-05-14T00:58:21.583Z,28.5664
2019-05-14T00:58:28.232Z,28.6198
2019-05-14T00:58:41.342Z,28.3970
2019-05-14T00:58:48.230Z,28.3696
2019-05-14T00:59:01.251Z,28.4733
2019-05-14T00:59:08.232Z,28.5298
2019-05-14T00:59:21.512Z,28.6198
2019-05-14T00:59:28.244Z,28.4245
2019-05-14T00:59:41.437Z,28.7083
2019-05-14T00:59:48.238Z,28.7953
2019-05-14T01:00:01.092Z,28.8365
2019-05-14T01:00:08.244Z,28.9097
2019-05-14T01:00:19.246Z,28.9372
2019-05-14T01:00:28.250Z,28.9494
2019-05-14T01:00:39.237Z,28.8808
2019-05-14T01:00:48.257Z,28.7037
2019-05-14T01:01:01.338Z,28.3680
2019-05-14T01:01:08.249Z,28.3879
2019-05-14T01:01:21.329Z,28.2368
2019-05-14T01:01:28.245Z,28.2078
2019-05-14T01:01:37.712Z,28.0522
2019-05-14T01:01:51.445Z,28.0537
2019-05-14T01:01:59.250Z,28.0293
2019-05-14T01:02:08.223Z,28.1727
2019-05-14T01:02:21.624Z,28.1575
2019-05-14T01:02:28.262Z,28.3192
2019-05-14T01:02:38.443Z,28.1544
2019-05-14T01:02:48.239Z,28.1041
2019-05-14T01:02:59.259Z,28.2460
2019-05-14T01:03:08.249Z,28.1849
2019-05-14T01:03:21.575Z,28.0888
2019-05-14T01:03:32.309Z,28.1773
2019-05-14T01:03:41.355Z,28.2078
2019-05-14T01:03:52.101Z,28.2551
2019-05-14T01:03:58.241Z,28.3680
2019-05-14T01:04:11.739Z,28.0751
2019-05-14T01:04:18.263Z,27.9789
2019-05-14T01:04:31.207Z,28.1636
2019-05-14T01:04:38.232Z,28.1712
2019-05-14T01:04:51.384Z,28.2811
2019-05-14T01:04:58.244Z,28.2582
2019-05-14T01:05:09.238Z,28.3635
2019-05-14T01:05:18.224Z,28.4092
2019-05-14T01:05:29.253Z,28.6992
2019-05-14T01:05:38.273Z,28.4688
2019-05-14T01:05:49.270Z,28.2460
2019-05-14T01:05:58.231Z,28.2628
2019-05-14T01:06:11.294Z,28.1727
2019-05-14T01:06:18.261Z,28.2322
2019-05-14T01:06:31.522Z,28.3131
2019-05-14T01:06:38.223Z,28.3604
2019-05-14T01:06:51.141Z,28.2582
2019-05-14T01:06:58.241Z,28.3131
2019-05-14T01:07:11.672Z,28.4276
2019-05-14T01:07:18.258Z,28.6336
2019-05-14T01:07:33.787Z,28.9921
2019-05-14T01:07:38.246Z,29.0150
2019-05-14T01:07:51.210Z,28.9860
2019-05-14T01:07:58.261Z,28.8136
2019-05-14T01:08:09.247Z,28.4642
2019-05-14T01:08:18.249Z,28.4367
2019-05-14T01:08:29.237Z,28.7938
2019-05-14T01:08:38.258Z,28.7709
2019-05-14T01:08:49.241Z,28.5573
2019-05-14T01:08:58.250Z,28.3787
2019-05-14T01:09:11.291Z,28.2582
2019-05-14T01:09:22.817Z,28.2048
2019-05-14T01:09:31.464Z,28.2948
2019-05-14T01:09:38.248Z,28.5710
2019-05-14T01:09:48.188Z,28.8762
2019-05-14T01:09:58.244Z,28.7434
2019-05-14T01:10:08.728Z,28.3238
2019-05-14T01:10:18.293Z,27.9881
2019-05-14T01:10:31.343Z,27.9286
2019-05-14T01:10:41.779Z,27.9789
2019-05-14T01:10:51.158Z,27.9301
2019-05-14T01:11:01.588Z,28.1041
2019-05-14T01:11:08.254Z,28.1498
2019-05-14T01:11:21.956Z,28.0354
2019-05-14T01:11:28.249Z,28.2124
2019-05-14T01:11:39.242Z,28.3177
2019-05-14T01:11:48.237Z,28.3604
2019-05-14T01:12:01.627Z,28.5466
2019-05-14T01:12:08.254Z,28.7633
2019-05-14T01:12:21.267Z,28.7816
2019-05-14T01:12:28.255Z,28.7495
2019-05-14T01:12:41.357Z,28.6656
2019-05-14T01:12:48.245Z,28.4779
2019-05-14T01:13:01.179Z,28.3467
2019-05-14T01:13:08.247Z,28.2765
2019-05-14T01:13:19.246Z,28.5298
2019-05-14T01:13:31.297Z,28.5298
2019-05-14T01:13:41.494Z,28.3360
2019-05-14T01:13:48.220Z,28.2719
2019-05-14T01:14:01.497Z,28.3421
2019-05-14T01:14:08.235Z,28.4291
2019-05-14T01:14:21.123Z,28.5328
2019-05-14T01:14:28.267Z,28.4428
2019-05-14T01:14:39.252Z,28.2918
2019-05-14T01:14:51.485Z,28.3131
2019-05-14T01:15:07.786Z,28.3543
2019-05-14T01:15:13.286Z,28.1956
2019-05-14T01:15:21.506Z,28.0766
2019-05-14T01:15:28.255Z,28.2277
2019-05-14T01:15:41.487Z,28.1910
2019-05-14T01:15:52.116Z,28.2994
2019-05-14T01:16:01.351Z,28.2460
2019-05-14T01:16:12.066Z,28.3314
2019-05-14T01:16:19.216Z,28.2078
2019-05-14T01:16:31.794Z,28.0812
2019-05-14T01:16:38.251Z,28.2826
2019-05-14T01:16:51.350Z,28.5573
2019-05-14T01:16:58.232Z,28.4779
2019-05-14T01:17:11.193Z,28.5786
2019-05-14T01:17:22.785Z,28.7266
2019-05-14T01:17:31.170Z,28.6656
2019-05-14T01:17:38.246Z,28.4291
2019-05-14T01:17:51.381Z,27.8981
2019-05-14T01:17:58.226Z,27.8248
2019-05-14T01:18:11.302Z,28.0125
2019-05-14T01:18:18.249Z,28.0934
2019-05-14T01:18:28.130Z,28.1392
2019-05-14T01:18:42.782Z,28.3543
2019-05-14T01:18:52.809Z,28.7526
2019-05-14T01:18:58.245Z,28.8090
2019-05-14T01:19:13.775Z,28.7160
2019-05-14T01:19:18.255Z,28.7434
2019-05-14T01:19:31.477Z,28.7449
2019-05-14T01:19:38.246Z,28.5206
2019-05-14T01:19:51.271Z,28.6992
2019-05-14T01:19:58.233Z,28.5893
2019-05-14T01:20:09.246Z,28.3818
2019-05-14T01:20:18.244Z,28.3223
2019-05-14T01:20:29.234Z,28.2826
2019-05-14T01:20:38.255Z,28.2139
2019-05-14T01:20:51.692Z,28.2765
2019-05-14T01:20:58.238Z,28.3101
2019-05-14T01:21:11.500Z,28.5527
2019-05-14T01:21:18.279Z,28.6748
2019-05-14T01:21:28.473Z,28.5695
2019-05-14T01:21:39.149Z,28.6213
2019-05-14T01:21:51.055Z,28.3970
2019-05-14T01:21:58.219Z,28.6442
2019-05-14T01:22:12.232Z,28.5649
2019-05-14T01:22:21.286Z,28.7251
2019-05-14T01:22:31.592Z,28.7678
2019-05-14T01:22:42.228Z,28.7678
2019-05-14T01:22:48.237Z,28.6656
2019-05-14T01:23:02.196Z,28.4733
2019-05-14T01:23:08.251Z,28.4871
2019-05-14T01:23:23.747Z,28.6625
2019-05-14T01:23:28.231Z,28.7816
2019-05-14T01:23:41.362Z,28.6900
2019-05-14T01:23:48.238Z,28.6381
2019-05-14T01:24:02.034Z,28.8212
2019-05-14T01:24:08.236Z,29.0135
2019-05-14T01:24:21.447Z,28.8777
2019-05-14T01:24:28.258Z,28.4703
2019-05-14T01:24:41.448Z,28.3772
2019-05-14T01:24:48.245Z,28.2780
2019-05-14T01:25:01.456Z,28.2918
2019-05-14T01:25:08.262Z,28.3772
2019-05-14T01:25:19.267Z,28.5420
2019-05-14T01:25:28.251Z,28.5069
2019-05-14T01:25:39.234Z,28.4840
2019-05-14T01:25:48.265Z,28.5328
2019-05-14T01:25:59.240Z,28.3330
2019-05-14T01:26:08.265Z,28.2643
2019-05-14T01:26:21.597Z,28.1941
2019-05-14T01:26:28.226Z,28.2185
2019-05-14T01:26:41.476Z,28.2994
2019-05-14T01:26:48.267Z,28.4916
2019-05-14T01:26:58.820Z,28.5206
2019-05-14T01:27:08.240Z,28.5161
2019-05-14T01:27:18.141Z,28.6213
2019-05-14T01:27:28.263Z,28.2628
2019-05-14T01:27:41.367Z,28.4337
2019-05-14T01:27:48.237Z,28.5832
2019-05-14T01:27:59.233Z,28.7846
2019-05-14T01:28:11.211Z,28.7022
2019-05-14T01:28:21.436Z,28.3406
2019-05-14T01:28:32.173Z,28.5374
2019-05-14T01:28:41.554Z,28.6625
2019-05-14T01:28:51.377Z,28.5054
2019-05-14T01:29:01.253Z,28.3879
2019-05-14T01:29:11.972Z,28.4504
2019-05-14T01:29:18.247Z,28.5100
2019-05-14T01:29:31.658Z,28.7846
2019-05-14T01:29:38.247Z,28.9143
2019-05-14T01:29:51.204Z,28.7800
2019-05-14T01:29:58.249Z,28.5939
2019-05-14T01:30:09.251Z,28.2322
2019-05-14T01:30:18.249Z,28.2536
2019-05-14T01:30:29.237Z,28.3131
2019-05-14T01:30:38.250Z,28.3055
2019-05-14T01:30:51.608Z,28.2918
2019-05-14T01:30:58.236Z,28.3146
2019-05-14T01:31:11.192Z,28.6580
2019-05-14T01:31:18.267Z,28.8319
2019-05-14T01:31:31.284Z,28.7404
2019-05-14T01:31:38.362Z,28.5786
2019-05-14T01:31:49.233Z,28.4504
2019-05-14T01:31:57.679Z,28.3680
2019-05-14T01:32:11.468Z,28.7297
2019-05-14T01:32:18.263Z,28.6748
2019-05-14T01:32:31.373Z,28.6519
2019-05-14T01:32:38.238Z,28.8396
2019-05-14T01:32:51.156Z,28.7037
2019-05-14T01:32:57.479Z,28.5054
2019-05-14T01:33:09.252Z,28.2719
2019-05-14T01:33:18.241Z,28.0171
2019-05-14T01:33:28.339Z,28.2643
2019-05-14T01:33:38.252Z,28.3589
2019-05-14T01:33:51.400Z,28.3925
2019-05-14T01:34:02.248Z,28.4977
2019-05-14T01:34:11.201Z,28.6152
2019-05-14T01:34:21.603Z,28.5786
2019-05-14T01:34:32.176Z,28.5557
2019-05-14T01:34:41.978Z,28.6290
2019-05-14T01:34:48.233Z,28.6107
2019-05-14T01:35:01.394Z,28.6976
2019-05-14T01:35:08.237Z,28.9036
2019-05-14T01:35:19.232Z,28.9631
2019-05-14T01:35:28.244Z,28.7495
2019-05-14T01:35:42.046Z,28.7495
2019-05-14T01:35:48.227Z,28.7083
2019-05-14T01:35:59.262Z,28.4428
2019-05-14T01:36:08.234Z,28.5878
2019-05-14T01:36:21.342Z,28.3055
2019-05-14T01:36:28.259Z,28.3375
2019-05-14T01:36:41.732Z,28.0629
2019-05-14T01:36:48.283Z,28.1529
2019-05-14T01:36:59.258Z,28.2078
2019-05-14T01:37:11.661Z,28.1361
2019-05-14T01:37:21.705Z,28.0842
2019-05-14T01:37:32.737Z,28.2216
2019-05-14T01:37:41.816Z,28.1483
2019-05-14T01:37:48.232Z,28.1636
2019-05-14T01:37:58.661Z,28.1773
2019-05-14T01:38:08.237Z,28.2277
2019-05-14T01:38:19.247Z,28.2719
2019-05-14T01:38:27.481Z,28.1086
2019-05-14T01:38:37.787Z,28.0980
2019-05-14T01:38:48.229Z,28.2765
2019-05-14T01:39:01.612Z,28.2643
2019-05-14T01:39:08.238Z,28.1682
2019-05-14T01:39:21.214Z,28.2277
2019-05-14T01:39:28.239Z,28.2414
2019-05-14T01:39:41.765Z,28.2185
2019-05-14T01:39:52.023Z,28.1910
2019-05-14T01:40:01.202Z,28.1636
2019-05-14T01:40:11.422Z,28.2277
2019-05-14T01:40:18.251Z,28.4367
2019-05-14T01:40:31.558Z,28.6152
2019-05-14T01:40:38.243Z,28.5649
2019-05-14T01:40:49.249Z,28.4108
2019-05-14T01:40:58.235Z,28.2490
2019-05-14T01:41:11.690Z,28.3925
2019-05-14T01:41:18.241Z,28.4382
2019-05-14T01:41:31.544Z,28.2322
2019-05-14T01:41:38.254Z,28.0903
2019-05-14T01:41:51.480Z,27.9255
2019-05-14T01:41:58.253Z,28.1315
2019-05-14T01:42:09.259Z,28.4794
2019-05-14T01:42:18.249Z,28.5740
2019-05-14T01:42:27.741Z,28.5252
2019-05-14T01:42:38.248Z,28.5344
2019-05-14T01:42:52.047Z,28.7221
2019-05-14T01:43:02.638Z,28.5145
2019-05-14T01:43:11.395Z,28.6213
2019-05-14T01:43:18.255Z,28.6702
2019-05-14T01:43:31.290Z,28.7816
2019-05-14T01:43:38.239Z,28.6763
2019-05-14T01:43:51.248Z,28.6198
2019-05-14T01:43:58.264Z,28.8640
2019-05-14T01:44:09.246Z,28.8411
2019-05-14T01:44:21.210Z,28.7083
2019-05-14T01:44:28.488Z,28.4642
2019-05-14T01:44:41.089Z,28.4779
2019-05-14T01:44:51.685Z,28.5374
2019-05-14T01:44:58.242Z,28.6976
2019-05-14T01:45:23.533Z,28.8579
2019-05-14T01:45:25.077Z,28.9052
2019-05-14T01:45:31.457Z,28.7663
2019-05-14T01:45:41.733Z,28.6854
2019-05-14T01:45:49.239Z,28.6015
2019-05-14T01:46:02.002Z,28.4566
2019-05-14T01:46:09.257Z,28.3726
2019-05-14T01:46:21.024Z,28.3833
2019-05-14T01:46:28.233Z,28.6763
2019-05-14T01:46:42.043Z,28.5252
2019-05-14T01:46:48.236Z,28.3177
2019-05-14T01:46:59.243Z,28.5298
2019-05-14T01:47:08.248Z,28.4886
2019-05-14T01:47:21.302Z,28.4321
2019-05-14T01:47:28.258Z,28.3604
2019-05-14T01:47:41.372Z,28.3726
2019-05-14T01:47:48.248Z,28.5512
2019-05-14T01:48:01.233Z,28.8457
2019-05-14T01:48:08.252Z,28.9967
2019-05-14T01:48:19.254Z,29.0196
2019-05-14T01:48:28.244Z,28.9448
2019-05-14T01:48:41.616Z,28.6397
2019-05-14T01:48:48.248Z,28.4779
2019-05-14T01:49:01.377Z,28.3879
2019-05-14T01:49:12.721Z,28.6015
2019-05-14T01:49:19.242Z,28.5298
2019-05-14T01:49:28.236Z,28.5328
2019-05-14T01:49:39.221Z,28.4382
2019-05-14T01:49:48.237Z,28.2643
2019-05-14T01:49:58.739Z,28.2124
2019-05-14T01:50:08.231Z,28.2460
2019-05-14T01:50:21.445Z,28.4047
2019-05-14T01:50:28.245Z,28.3726
2019-05-14T01:50:41.251Z,28.1575
2019-05-14T01:50:47.486Z,28.2078
2019-05-14T01:51:01.316Z,28.2780
2019-05-14T01:51:08.246Z,28.6839
2019-05-14T01:51:18.151Z,28.8670
2019-05-14T01:51:28.256Z,28.9235
2019-05-14T01:51:39.226Z,28.6854
2019-05-14T01:51:51.052Z,28.6839
2019-05-14T01:52:01.580Z,28.7343
2019-05-14T01:52:11.271Z,28.6992
2019-05-14T01:52:21.790Z,28.6702
2019-05-14T01:52:31.788Z,28.6122
2019-05-14T01:52:38.256Z,28.6397
2019-05-14T01:52:52.034Z,28.5344
2019-05-14T01:52:58.250Z,28.3497
2019-05-14T01:53:11.411Z,28.2094
2019-05-14T01:53:18.236Z,28.2002
2019-05-14T01:53:31.256Z,28.2353
2019-05-14T01:53:38.252Z,28.1987
2019-05-14T01:53:49.261Z,28.3604
2019-05-14T01:53:58.231Z,28.5618
2019-05-14T01:54:09.231Z,28.5008
2019-05-14T01:54:18.255Z,28.4611
2019-05-14T01:54:31.524Z,28.5023
2019-05-14T01:54:38.246Z,28.4062
2019-05-14T01:54:51.329Z,28.3223
2019-05-14T01:54:58.266Z,28.1544
2019-05-14T01:55:11.216Z,28.1956
2019-05-14T01:55:18.247Z,28.3650
2019-05-14T01:55:29.258Z,28.4749
2019-05-14T01:55:38.260Z,28.4382
2019-05-14T01:55:49.254Z,28.3787
2019-05-14T01:55:58.224Z,28.4382
2019-05-14T01:56:09.244Z,28.6976
2019-05-14T01:56:18.766Z,28.5664
2019-05-14T01:56:33.847Z,28.3146
2019-05-14T01:56:38.239Z,28.3909
2019-05-14T01:56:51.312Z,28.5573
2019-05-14T01:57:01.927Z,28.5206
2019-05-14T01:57:11.306Z,28.5206
2019-05-14T01:57:18.226Z,28.4413
2019-05-14T01:57:31.213Z,28.2231
2019-05-14T01:57:38.249Z,28.2689
2019-05-14T01:57:51.573Z,28.5878
2019-05-14T01:58:02.352Z,28.5847
2019-05-14T01:58:11.970Z,28.2307
2019-05-14T01:58:22.046Z,28.2506
2019-05-14T01:58:31.131Z,28.1804
2019-05-14T01:58:41.765Z,28.1575
2019-05-14T01:58:48.259Z,28.4184
2019-05-14T01:59:01.637Z,28.5985
2019-05-14T01:59:08.241Z,28.6580
2019-05-14T01:59:21.347Z,28.6473
2019-05-14T01:59:28.244Z,28.6259
2019-05-14T01:59:39.245Z,28.5786
2019-05-14T01:59:48.249Z,28.4749
2019-05-14T01:59:59.227Z,28.4886
2019-05-14T02:00:08.241Z,28.4382
2019-05-14T02:00:19.235Z,28.5298
2019-05-14T02:00:28.301Z,28.5344
2019-05-14T02:00:41.473Z,28.3864
2019-05-14T02:00:48.262Z,28.4886
2019-05-14T02:01:01.706Z,28.5939